Houston, Alaska
Current Conditions -  °F | °C
As of 7:16 PM on Friday 19 Dec 2014 (Local Time) from PAWS Reporting Station
Overcast Overcast  
Wind Chill: 16°   Ceiling: 11000
Heat Index: 25°   Visibility: 10mi
Dew Point:   Wind: 8mph
Humidity: 50%   Direction: 40°NE
Pressure: 29.11"   Gusts: NA
Location:  61.63°N, 149.82°W
Report Text: PAWS 200416Z AUTO 04007KT 10SM OVC110 M04/M13 A2911 RMK AO1
Loading
Personal Weather Stations






























Interactive Weather Map New forecast layout! Learn more

10-Day Weather Forecast

Advertisements
Track Severe Weather on mobile